sensor_id;sensor_type;location;lat;lon;timestamp;pressure;altitude;pressure_sealevel;temperature;humidity
4133;BME280;2080;51.038;7.008;2024-02-14T00:00:00;46181.31;;;-142.53;79.17
4133;BME280;2080;51.038;7.008;2024-02-14T00:02:26;46150.53;;;-142.53;79.32
4133;BME280;2080;51.038;7.008;2024-02-14T00:04:54;46196.72;;;-142.53;80.45
4133;BME280;2080;51.038;7.008;2024-02-14T00:07:20;46173.63;;;-142.53;79.99
4133;BME280;2080;51.038;7.008;2024-02-14T00:09:47;46192.88;;;-142.53;79.82
4133;BME280;2080;51.038;7.008;2024-02-14T00:12:12;46125.50;;;-142.53;81.29
4133;BME280;2080;51.038;7.008;2024-02-14T00:14:38;46179.41;;;-142.53;81.64
4133;BME280;2080;51.038;7.008;2024-02-14T00:17:06;46150.53;;;-142.53;81.25
4133;BME280;2080;51.038;7.008;2024-02-14T00:19:32;46189.03;;;-142.53;81.08
4133;BME280;2080;51.038;7.008;2024-02-14T00:22:00;46142.81;;;-142.53;82.09
4133;BME280;2080;51.038;7.008;2024-02-14T00:24:25;46196.72;;;-142.53;82.91
4133;BME280;2080;51.038;7.008;2024-02-14T00:26:52;46183.25;;;-142.53;82.88
4133;BME280;2080;51.038;7.008;2024-02-14T00:29:17;46175.53;;;-142.53;83.02
4133;BME280;2080;51.038;7.008;2024-02-14T00:31:42;46202.50;;;-142.53;82.32
4133;BME280;2080;51.038;7.008;2024-02-14T00:34:14;46196.72;;;-142.53;81.32
4133;BME280;2080;51.038;7.008;2024-02-14T00:36:39;46189.03;;;-142.53;84.27
4133;BME280;2080;51.038;7.008;2024-02-14T00:39:05;46212.13;;;-142.53;83.92
4133;BME280;2080;51.038;7.008;2024-02-14T00:41:36;46185.16;;;-142.53;85.73
4133;BME280;2080;51.038;7.008;2024-02-14T00:44:01;46289.13;;;-142.53;86.90
4133;BME280;2080;51.038;7.008;2024-02-14T00:46:31;46192.88;;;-142.53;88.79
4133;BME280;2080;51.038;7.008;2024-02-14T00:48:56;46393.09;;;-142.53;89.07
4133;BME280;2080;51.038;7.008;2024-02-14T00:51:22;46190.94;;;-142.53;85.72
4133;BME280;2080;51.038;7.008;2024-02-14T00:53:51;46227.53;;;-142.53;88.67
4133;BME280;2080;51.038;7.008;2024-02-14T00:56:17;46242.94;;;-142.53;90.06
4133;BME280;2080;51.038;7.008;2024-02-14T00:58:45;46227.53;;;-142.53;88.04
4133;BME280;2080;51.038;7.008;2024-02-14T01:01:10;46300.69;;;-142.53;88.42
4133;BME280;2080;51.038;7.008;2024-02-14T01:03:37;46260.25;;;-142.53;90.39
4133;BME280;2080;51.038;7.008;2024-02-14T01:06:02;46227.53;;;-142.53;87.99
4133;BME280;2080;51.038;7.008;2024-02-14T01:08:28;46214.06;;;-142.53;87.34
4133;BME280;2080;51.038;7.008;2024-02-14T01:10:54;46254.47;;;-142.53;87.44
4133;BME280;2080;51.038;7.008;2024-02-14T01:13:19;46190.94;;;-142.53;84.74
4133;BME280;2080;51.038;7.008;2024-02-14T01:15:47;46227.53;;;-142.53;87.68
4133;BME280;2080;51.038;7.008;2024-02-14T01:18:15;46225.59;;;-142.53;85.34
4133;BME280;2080;51.038;7.008;2024-02-14T01:20:40;46227.53;;;-142.53;85.83
4133;BME280;2080;51.038;7.008;2024-02-14T01:23:06;46208.28;;;-142.53;87.02
4133;BME280;2080;51.038;7.008;2024-02-14T01:25:31;46242.94;;;-142.53;85.80
4133;BME280;2080;51.038;7.008;2024-02-14T01:28:01;46208.28;;;-142.53;85.43
4133;BME280;2080;51.038;7.008;2024-02-14T01:30:26;46215.97;;;-142.53;84.38
4133;BME280;2080;51.038;7.008;2024-02-14T01:32:52;46198.66;;;-142.53;84.49
4133;BME280;2080;51.038;7.008;2024-02-14T01:35:18;46196.72;;;-142.53;85.12
4133;BME280;2080;51.038;7.008;2024-02-14T01:37:45;46154.38;;;-142.53;84.47
4133;BME280;2080;51.038;7.008;2024-02-14T01:40:12;46200.56;;;-142.53;85.57
4133;BME280;2080;51.038;7.008;2024-02-14T01:42:37;46208.28;;;-142.53;85.85
4133;BME280;2080;51.038;7.008;2024-02-14T01:45:03;46204.41;;;-142.53;85.05
4133;BME280;2080;51.038;7.008;2024-02-14T01:47:29;46217.91;;;-142.53;86.24
4133;BME280;2080;51.038;7.008;2024-02-14T01:49:59;46219.81;;;-142.53;87.68
4133;BME280;2080;51.038;7.008;2024-02-14T01:52:28;46200.56;;;-142.53;85.46
4133;BME280;2080;51.038;7.008;2024-02-14T01:54:54;46185.16;;;-142.53;84.39
4133;BME280;2080;51.038;7.008;2024-02-14T01:57:20;46192.88;;;-142.53;84.95
4133;BME280;2080;51.038;7.008;2024-02-14T01:59:49;46185.16;;;-142.53;85.50
4133;BME280;2080;51.038;7.008;2024-02-14T02:02:19;46200.56;;;-142.53;84.89
4133;BME280;2080;51.038;7.008;2024-02-14T02:04:44;46212.13;;;-142.53;86.32
4133;BME280;2080;51.038;7.008;2024-02-14T02:07:12;46200.56;;;-142.53;85.79
4133;BME280;2080;51.038;7.008;2024-02-14T02:09:37;46192.88;;;-142.53;85.12
4133;BME280;2080;51.038;7.008;2024-02-14T02:12:03;46200.56;;;-142.53;85.02
4133;BME280;2080;51.038;7.008;2024-02-14T02:14:32;46189.03;;;-142.53;85.18
4133;BME280;2080;51.038;7.008;2024-02-14T02:17:03;46196.72;;;-142.53;85.10
4133;BME280;2080;51.038;7.008;2024-02-14T02:19:33;46208.28;;;-142.53;86.07
4133;BME280;2080;51.038;7.008;2024-02-14T02:21:59;46227.53;;;-142.53;87.05
4133;BME280;2080;51.038;7.008;2024-02-14T02:24:24;46242.94;;;-142.53;88.27
4133;BME280;2080;51.038;7.008;2024-02-14T02:26:50;46227.53;;;-142.53;90.27
4133;BME280;2080;51.038;7.008;2024-02-14T02:29:15;46212.13;;;-142.53;86.53
4133;BME280;2080;51.038;7.008;2024-02-14T02:31:46;46204.41;;;-142.53;86.00
4133;BME280;2080;51.038;7.008;2024-02-14T02:34:13;46212.13;;;-142.53;87.76
4133;BME280;2080;51.038;7.008;2024-02-14T02:36:41;46227.53;;;-142.53;87.16
4133;BME280;2080;51.038;7.008;2024-02-14T02:39:06;46219.81;;;-142.53;85.90
4133;BME280;2080;51.038;7.008;2024-02-14T02:41:32;46200.56;;;-142.53;86.26
4133;BME280;2080;51.038;7.008;2024-02-14T02:43:58;46212.13;;;-142.53;86.45
4133;BME280;2080;51.038;7.008;2024-02-14T02:46:27;46200.56;;;-142.53;86.25
4133;BME280;2080;51.038;7.008;2024-02-14T02:48:52;46242.94;;;-142.53;86.85
4133;BME280;2080;51.038;7.008;2024-02-14T02:51:20;46204.41;;;-142.53;85.85
4133;BME280;2080;51.038;7.008;2024-02-14T02:53:46;46185.16;;;-142.53;85.71
4133;BME280;2080;51.038;7.008;2024-02-14T02:56:11;46225.59;;;-142.53;86.49
4133;BME280;2080;51.038;7.008;2024-02-14T02:58:38;46206.34;;;-142.53;84.99
4133;BME280;2080;51.038;7.008;2024-02-14T03:01:10;46204.41;;;-142.53;84.71
4133;BME280;2080;51.038;7.008;2024-02-14T03:03:40;46208.28;;;-142.53;86.91
4133;BME280;2080;51.038;7.008;2024-02-14T03:06:06;46196.72;;;-142.53;86.29
4133;BME280;2080;51.038;7.008;2024-02-14T03:08:31;46189.03;;;-142.53;86.24
4133;BME280;2080;51.038;7.008;2024-02-14T03:11:04;46208.28;;;-142.53;85.45
4133;BME280;2080;51.038;7.008;2024-02-14T03:13:31;46231.38;;;-142.53;85.92
4133;BME280;2080;51.038;7.008;2024-02-14T03:16:00;46189.03;;;-142.53;85.49
4133;BME280;2080;51.038;7.008;2024-02-14T03:18:26;46196.72;;;-142.53;86.26
4133;BME280;2080;51.038;7.008;2024-02-14T03:20:54;46212.13;;;-142.53;86.18
4133;BME280;2080;51.038;7.008;2024-02-14T03:23:19;46239.06;;;-142.53;87.22
4133;BME280;2080;51.038;7.008;2024-02-14T03:25:45;46181.31;;;-142.53;86.81
4133;BME280;2080;51.038;7.008;2024-02-14T03:28:10;46200.56;;;-142.53;87.56
4133;BME280;2080;51.038;7.008;2024-02-14T03:30:43;46187.09;;;-142.53;86.54
4133;BME280;2080;51.038;7.008;2024-02-14T03:33:08;46231.38;;;-142.53;88.78
4133;BME280;2080;51.038;7.008;2024-02-14T03:35:36;46200.56;;;-142.53;86.19
4133;BME280;2080;51.038;7.008;2024-02-14T03:38:02;46202.50;;;-142.53;85.76
4133;BME280;2080;51.038;7.008;2024-02-14T03:40:28;46158.22;;;-142.53;86.84
4133;BME280;2080;51.038;7.008;2024-02-14T03:42:58;46223.69;;;-142.53;87.43
4133;BME280;2080;51.038;7.008;2024-02-14T03:45:23;46204.41;;;-142.53;87.85
4133;BME280;2080;51.038;7.008;2024-02-14T03:47:49;46227.53;;;-142.53;86.11
4133;BME280;2080;51.038;7.008;2024-02-14T03:50:14;46219.81;;;-142.53;87.41
4133;BME280;2080;51.038;7.008;2024-02-14T03:52:41;46194.81;;;-142.53;86.96
4133;BME280;2080;51.038;7.008;2024-02-14T03:55:08;46254.47;;;-142.53;87.21
4133;BME280;2080;51.038;7.008;2024-02-14T03:57:38;46235.22;;;-142.53;87.49
4133;BME280;2080;51.038;7.008;2024-02-14T04:00:04;46227.53;;;-142.53;89.86
4133;BME280;2080;51.038;7.008;2024-02-14T04:02:35;46190.94;;;-142.53;87.46
4133;BME280;2080;51.038;7.008;2024-02-14T04:05:01;46208.28;;;-142.53;87.96
4133;BME280;2080;51.038;7.008;2024-02-14T04:07:29;46242.94;;;-142.53;87.74
4133;BME280;2080;51.038;7.008;2024-02-14T04:09:55;46254.47;;;-142.53;87.53
4133;BME280;2080;51.038;7.008;2024-02-14T04:12:21;46217.91;;;-142.53;87.31
4133;BME280;2080;51.038;7.008;2024-02-14T04:14:46;46227.53;;;-142.53;87.01
4133;BME280;2080;51.038;7.008;2024-02-14T04:17:14;46204.41;;;-142.53;88.49
4133;BME280;2080;51.038;7.008;2024-02-14T04:19:45;46231.38;;;-142.53;89.48
4133;BME280;2080;51.038;7.008;2024-02-14T04:22:13;46212.13;;;-142.53;89.37
4133;BME280;2080;51.038;7.008;2024-02-14T04:24:38;46217.91;;;-142.53;89.24
4133;BME280;2080;51.038;7.008;2024-02-14T04:27:06;46223.69;;;-142.53;87.66
4133;BME280;2080;51.038;7.008;2024-02-14T04:29:34;46235.22;;;-142.53;89.06
4133;BME280;2080;51.038;7.008;2024-02-14T04:32:00;46273.72;;;-142.53;88.61
4133;BME280;2080;51.038;7.008;2024-02-14T04:34:25;46250.63;;;-142.53;88.41
4133;BME280;2080;51.038;7.008;2024-02-14T04:36:51;46242.94;;;-142.53;88.76
4133;BME280;2080;51.038;7.008;2024-02-14T04:39:17;46266.03;;;-142.53;90.63
4133;BME280;2080;51.038;7.008;2024-02-14T04:41:45;46254.47;;;-142.53;90.24
4133;BME280;2080;51.038;7.008;2024-02-14T04:44:10;46231.38;;;-142.53;88.47
4133;BME280;2080;51.038;7.008;2024-02-14T04:46:35;46267.94;;;-142.53;87.89
4133;BME280;2080;51.038;7.008;2024-02-14T04:49:03;46258.31;;;-142.53;89.02
4133;BME280;2080;51.038;7.008;2024-02-14T04:51:29;46235.22;;;-142.53;88.41
4133;BME280;2080;51.038;7.008;2024-02-14T04:53:55;46254.47;;;-142.53;88.55
4133;BME280;2080;51.038;7.008;2024-02-14T04:56:24;46254.47;;;-142.53;88.31
4133;BME280;2080;51.038;7.008;2024-02-14T04:58:51;46225.59;;;-142.53;87.77
4133;BME280;2080;51.038;7.008;2024-02-14T05:01:18;46258.31;;;-142.53;88.22
4133;BME280;2080;51.038;7.008;2024-02-14T05:03:44;46242.94;;;-142.53;87.37
4133;BME280;2080;51.038;7.008;2024-02-14T05:06:12;46227.53;;;-142.53;86.74
4133;BME280;2080;51.038;7.008;2024-02-14T05:08:37;46227.53;;;-142.53;87.54
4133;BME280;2080;51.038;7.008;2024-02-14T05:11:05;46231.38;;;-142.53;87.53
4133;BME280;2080;51.038;7.008;2024-02-14T05:13:31;46248.69;;;-142.53;89.21
4133;BME280;2080;51.038;7.008;2024-02-14T05:16:02;46215.97;;;-142.53;89.73
4133;BME280;2080;51.038;7.008;2024-02-14T05:18:27;46223.69;;;-142.53;88.91
4133;BME280;2080;51.038;7.008;2024-02-14T05:20:55;46227.53;;;-142.53;88.10
4133;BME280;2080;51.038;7.008;2024-02-14T05:23:21;46239.06;;;-142.53;87.19
4133;BME280;2080;51.038;7.008;2024-02-14T05:25:49;46200.56;;;-142.53;88.00
4133;BME280;2080;51.038;7.008;2024-02-14T05:28:15;46231.38;;;-142.53;88.10
4133;BME280;2080;51.038;7.008;2024-02-14T05:30:46;46223.69;;;-142.53;88.76
4133;BME280;2080;51.038;7.008;2024-02-14T05:33:11;46237.16;;;-142.53;88.31
4133;BME280;2080;51.038;7.008;2024-02-14T05:35:38;46239.06;;;-142.53;88.77
4133;BME280;2080;51.038;7.008;2024-02-14T05:38:06;46202.50;;;-142.53;88.55
4133;BME280;2080;51.038;7.008;2024-02-14T05:40:35;46335.34;;;-142.53;94.01
4133;BME280;2080;51.038;7.008;2024-02-14T05:43:04;46604.88;;;-142.53;99.30
4133;BME280;2080;51.038;7.008;2024-02-14T05:45:32;46628.00;;;-142.53;96.90
4133;BME280;2080;51.038;7.008;2024-02-14T05:47:57;46577.94;;;-142.53;97.30
4133;BME280;2080;51.038;7.008;2024-02-14T05:50:28;46651.09;;;-142.53;98.03
4133;BME280;2080;51.038;7.008;2024-02-14T05:52:54;46654.94;;;-142.53;97.80
4133;BME280;2080;51.038;7.008;2024-02-14T05:55:19;46577.94;;;-142.53;97.00
4133;BME280;2080;51.038;7.008;2024-02-14T05:57:45;46654.94;;;-142.53;96.90
4133;BME280;2080;51.038;7.008;2024-02-14T06:00:10;46697.31;;;-142.53;97.87
4133;BME280;2080;51.038;7.008;2024-02-14T06:02:38;46628.00;;;-142.53;96.22
4133;BME280;2080;51.038;7.008;2024-02-14T06:05:05;46708.84;;;-142.53;98.35
4133;BME280;2080;51.038;7.008;2024-02-14T06:07:37;46649.16;;;-142.53;96.26
4133;BME280;2080;51.038;7.008;2024-02-14T06:10:02;46593.34;;;-142.53;96.54
4133;BME280;2080;51.038;7.008;2024-02-14T06:12:30;46639.53;;;-142.53;96.19
4133;BME280;2080;51.038;7.008;2024-02-14T06:15:01;46591.41;;;-142.53;95.87
4133;BME280;2080;51.038;7.008;2024-02-14T06:17:26;46737.75;;;-142.53;98.00
4133;BME280;2080;51.038;7.008;2024-02-14T06:19:55;46639.53;;;-142.53;96.39
4133;BME280;2080;51.038;7.008;2024-02-14T06:22:22;46681.91;;;-142.53;97.83
4133;BME280;2080;51.038;7.008;2024-02-14T06:24:53;46782.03;;;-142.53;98.98
4133;BME280;2080;51.038;7.008;2024-02-14T06:27:18;46835.94;;;-142.53;99.32
4133;BME280;2080;51.038;7.008;2024-02-14T06:29:44;46782.03;;;-142.53;97.89
4133;BME280;2080;51.038;7.008;2024-02-14T06:32:11;46762.78;;;-142.53;98.21
4133;BME280;2080;51.038;7.008;2024-02-14T06:34:41;46712.72;;;-142.53;97.69
4133;BME280;2080;51.038;7.008;2024-02-14T06:37:06;46770.47;;;-142.53;98.19
4133;BME280;2080;51.038;7.008;2024-02-14T06:39:32;46701.16;;;-142.53;96.84
4133;BME280;2080;51.038;7.008;2024-02-14T06:41:57;46672.28;;;-142.53;96.56
4133;BME280;2080;51.038;7.008;2024-02-14T06:44:25;46643.38;;;-142.53;96.83
4133;BME280;2080;51.038;7.008;2024-02-14T06:46:51;46731.97;;;-142.53;97.88
4133;BME280;2080;51.038;7.008;2024-02-14T06:49:16;46747.38;;;-142.53;98.41
4133;BME280;2080;51.038;7.008;2024-02-14T06:51:42;46768.53;;;-142.53;98.10
4133;BME280;2080;51.038;7.008;2024-02-14T06:54:07;46678.03;;;-142.53;97.18
4133;BME280;2080;51.038;7.008;2024-02-14T06:56:36;46795.50;;;-142.53;98.93
4133;BME280;2080;51.038;7.008;2024-02-14T06:59:01;46882.16;;;-142.53;99.39
4133;BME280;2080;51.038;7.008;2024-02-14T07:01:29;46728.09;;;-142.53;97.95
4133;BME280;2080;51.038;7.008;2024-02-14T07:03:54;46789.72;;;-142.53;98.73
4133;BME280;2080;51.038;7.008;2024-02-14T07:06:22;46724.25;;;-142.53;96.99
4133;BME280;2080;51.038;7.008;2024-02-14T07:08:48;46735.81;;;-142.53;97.42
4133;BME280;2080;51.038;7.008;2024-02-14T07:11:14;46660.72;;;-142.53;96.85
4133;BME280;2080;51.038;7.008;2024-02-14T07:13:43;46624.13;;;-142.53;95.85
4133;BME280;2080;51.038;7.008;2024-02-14T07:16:09;47013.09;;;-142.53;95.43
4133;BME280;2080;51.038;7.008;2024-02-14T07:18:34;46662.66;;;-142.53;98.19
4133;BME280;2080;51.038;7.008;2024-02-14T07:21:02;46593.34;;;-142.53;96.08
4133;BME280;2080;51.038;7.008;2024-02-14T07:23:31;46585.63;;;-142.53;95.87
4133;BME280;2080;51.038;7.008;2024-02-14T07:25:57;46629.91;;;-142.53;95.89
4133;BME280;2080;51.038;7.008;2024-02-14T07:28:25;46570.22;;;-142.53;95.79
4133;BME280;2080;51.038;7.008;2024-02-14T07:30:50;46581.78;;;-142.53;95.62
4133;BME280;2080;51.038;7.008;2024-02-14T07:33:18;46468.19;;;-142.53;92.82
4133;BME280;2080;51.038;7.008;2024-02-14T07:35:43;46472.03;;;-142.53;92.54
4133;BME280;2080;51.038;7.008;2024-02-14T07:38:11;46412.34;;;-142.53;92.40
4133;BME280;2080;51.038;7.008;2024-02-14T07:40:39;46439.31;;;-142.53;93.49
4133;BME280;2080;51.038;7.008;2024-02-14T07:43:09;46485.50;;;-142.53;94.04
4133;BME280;2080;51.038;7.008;2024-02-14T07:45:35;46427.75;;;-142.53;91.77
4133;BME280;2080;51.038;7.008;2024-02-14T07:48:00;46447.00;;;-142.53;93.06
4133;BME280;2080;51.038;7.008;2024-02-14T07:50:28;46439.31;;;-142.53;92.45
4133;BME280;2080;51.038;7.008;2024-02-14T07:52:53;46408.50;;;-142.53;92.05
4133;BME280;2080;51.038;7.008;2024-02-14T07:55:22;46385.41;;;-142.53;92.02
4133;BME280;2080;51.038;7.008;2024-02-14T07:57:47;46412.34;;;-142.53;92.70
4133;BME280;2080;51.038;7.008;2024-02-14T08:00:13;46418.13;;;-142.53;92.02
4133;BME280;2080;51.038;7.008;2024-02-14T08:02:46;46381.53;;;-142.53;91.14
4133;BME280;2080;51.038;7.008;2024-02-14T08:05:11;46346.88;;;-142.53;90.10
4133;BME280;2080;51.038;7.008;2024-02-14T08:07:39;46343.03;;;-142.53;90.26
4133;BME280;2080;51.038;7.008;2024-02-14T08:10:04;46335.34;;;-142.53;89.26
4133;BME280;2080;51.038;7.008;2024-02-14T08:12:32;46354.59;;;-142.53;90.38
4133;BME280;2080;51.038;7.008;2024-02-14T08:14:58;46323.78;;;-142.53;89.23
4133;BME280;2080;51.038;7.008;2024-02-14T08:17:29;46289.13;;;-142.53;88.27
4133;BME280;2080;51.038;7.008;2024-02-14T08:19:54;46300.69;;;-142.53;89.01
4133;BME280;2080;51.038;7.008;2024-02-14T08:22:19;46312.22;;;-142.53;89.16
4133;BME280;2080;51.038;7.008;2024-02-14T08:24:48;46308.38;;;-142.53;88.97
4133;BME280;2080;51.038;7.008;2024-02-14T08:27:16;46239.06;;;-142.53;86.75
4133;BME280;2080;51.038;7.008;2024-02-14T08:29:41;46304.53;;;-142.53;88.47
4133;BME280;2080;51.038;7.008;2024-02-14T08:32:06;46231.38;;;-142.53;86.83
4133;BME280;2080;51.038;7.008;2024-02-14T08:34:34;46258.31;;;-142.53;87.42
4133;BME280;2080;51.038;7.008;2024-02-14T08:37:02;46242.94;;;-142.53;87.82
4133;BME280;2080;51.038;7.008;2024-02-14T08:39:27;46239.06;;;-142.53;88.47
4133;BME280;2080;51.038;7.008;2024-02-14T08:41:53;46308.38;;;-142.53;88.15
4133;BME280;2080;51.038;7.008;2024-02-14T08:44:18;46242.94;;;-142.53;85.89
4133;BME280;2080;51.038;7.008;2024-02-14T08:46:43;46266.03;;;-142.53;87.28
4133;BME280;2080;51.038;7.008;2024-02-14T08:49:10;46285.28;;;-142.53;87.65
4133;BME280;2080;51.038;7.008;2024-02-14T08:51:38;46254.47;;;-142.53;85.99
4133;BME280;2080;51.038;7.008;2024-02-14T08:54:04;46223.69;;;-142.53;84.49
4133;BME280;2080;51.038;7.008;2024-02-14T08:56:32;46258.31;;;-142.53;86.41
4133;BME280;2080;51.038;7.008;2024-02-14T08:59:02;46250.63;;;-142.53;86.83
4133;BME280;2080;51.038;7.008;2024-02-14T09:01:31;46323.78;;;-142.53;84.61
4133;BME280;2080;51.038;7.008;2024-02-14T09:04:01;46206.34;;;-142.53;84.70
4133;BME280;2080;51.038;7.008;2024-02-14T09:06:26;46250.63;;;-142.53;85.07
4133;BME280;2080;51.038;7.008;2024-02-14T09:08:52;46212.13;;;-142.53;83.84
4133;BME280;2080;51.038;7.008;2024-02-14T09:11:22;46198.66;;;-142.53;83.09
4133;BME280;2080;51.038;7.008;2024-02-14T09:13:53;46208.28;;;-142.53;83.32
4133;BME280;2080;51.038;7.008;2024-02-14T09:16:21;46200.56;;;-142.53;81.90
4133;BME280;2080;51.038;7.008;2024-02-14T09:18:52;46214.06;;;-142.53;82.65
4133;BME280;2080;51.038;7.008;2024-02-14T09:21:17;46146.66;;;-142.53;81.50
4133;BME280;2080;51.038;7.008;2024-02-14T09:23:46;46173.63;;;-142.53;81.72
4133;BME280;2080;51.038;7.008;2024-02-14T09:26:12;46187.09;;;-142.53;81.76
4133;BME280;2080;51.038;7.008;2024-02-14T09:28:44;46164.00;;;-142.53;80.67
4133;BME280;2080;51.038;7.008;2024-02-14T09:31:16;46150.53;;;-142.53;78.79
4133;BME280;2080;51.038;7.008;2024-02-14T09:33:44;46165.91;;;-142.53;79.21
4133;BME280;2080;51.038;7.008;2024-02-14T09:36:12;46142.81;;;-142.53;79.04
4133;BME280;2080;51.038;7.008;2024-02-14T09:38:39;46135.13;;;-142.53;78.78
4133;BME280;2080;51.038;7.008;2024-02-14T09:41:14;46158.22;;;-142.53;78.59
4133;BME280;2080;51.038;7.008;2024-02-14T09:43:44;46085.06;;;-142.53;77.93
4133;BME280;2080;51.038;7.008;2024-02-14T09:46:13;46146.66;;;-142.53;78.50
4133;BME280;2080;51.038;7.008;2024-02-14T09:48:41;46117.78;;;-142.53;77.51
4133;BME280;2080;51.038;7.008;2024-02-14T09:51:09;46158.22;;;-142.53;79.71
4133;BME280;2080;51.038;7.008;2024-02-14T09:53:35;46277.59;;;-142.53;77.41
4133;BME280;2080;51.038;7.008;2024-02-14T09:56:02;46131.28;;;-142.53;78.15
4133;BME280;2080;51.038;7.008;2024-02-14T09:58:30;46181.31;;;-142.53;80.61
4133;BME280;2080;51.038;7.008;2024-02-14T10:00:55;46150.53;;;-142.53;79.94
4133;BME280;2080;51.038;7.008;2024-02-14T10:03:21;46158.22;;;-142.53;79.69
4133;BME280;2080;51.038;7.008;2024-02-14T10:05:46;46144.75;;;-142.53;79.55
4133;BME280;2080;51.038;7.008;2024-02-14T10:08:14;46169.78;;;-142.53;79.93
4133;BME280;2080;51.038;7.008;2024-02-14T10:10:41;46181.31;;;-142.53;82.40
4133;BME280;2080;51.038;7.008;2024-02-14T10:13:09;46123.56;;;-142.53;80.34
4133;BME280;2080;51.038;7.008;2024-02-14T10:15:37;46131.28;;;-142.53;81.65
4133;BME280;2080;51.038;7.008;2024-02-14T10:18:02;46200.56;;;-142.53;84.16
4133;BME280;2080;51.038;7.008;2024-02-14T10:20:31;46165.91;;;-142.53;81.29
4133;BME280;2080;51.038;7.008;2024-02-14T10:23:00;46169.78;;;-142.53;82.39
4133;BME280;2080;51.038;7.008;2024-02-14T10:25:28;46217.91;;;-142.53;86.28
4133;BME280;2080;51.038;7.008;2024-02-14T10:27:53;46262.19;;;-142.53;88.75
4133;BME280;2080;51.038;7.008;2024-02-14T10:30:19;46370.00;;;-142.53;91.96
4133;BME280;2080;51.038;7.008;2024-02-14T10:32:47;46447.00;;;-142.53;93.41
4133;BME280;2080;51.038;7.008;2024-02-14T10:35:15;46427.75;;;-142.53;91.69
4133;BME280;2080;51.038;7.008;2024-02-14T10:37:44;46420.06;;;-142.53;91.91
4133;BME280;2080;51.038;7.008;2024-02-14T10:40:09;46427.75;;;-142.53;92.47
4133;BME280;2080;51.038;7.008;2024-02-14T10:42:35;46400.78;;;-142.53;90.29
4133;BME280;2080;51.038;7.008;2024-02-14T10:45:02;46366.13;;;-142.53;89.31
4133;BME280;2080;51.038;7.008;2024-02-14T10:47:35;46273.72;;;-142.53;86.27
4133;BME280;2080;51.038;7.008;2024-02-14T10:50:03;46300.69;;;-142.53;87.74
4133;BME280;2080;51.038;7.008;2024-02-14T10:52:34;46296.84;;;-142.53;86.81
4133;BME280;2080;51.038;7.008;2024-02-14T10:55:04;46314.16;;;-142.53;87.91
4133;BME280;2080;51.038;7.008;2024-02-14T10:57:33;46256.41;;;-142.53;86.51
4133;BME280;2080;51.038;7.008;2024-02-14T11:00:06;46266.03;;;-142.53;87.79
4133;BME280;2080;51.038;7.008;2024-02-14T11:02:42;46258.31;;;-142.53;87.38
4133;BME280;2080;51.038;7.008;2024-02-14T11:05:19;46262.19;;;-142.53;86.45
4133;BME280;2080;51.038;7.008;2024-02-14T11:07:47;46269.88;;;-142.53;87.18
4133;BME280;2080;51.038;7.008;2024-02-14T11:10:15;46277.59;;;-142.53;86.77
4133;BME280;2080;51.038;7.008;2024-02-14T11:12:43;46254.47;;;-142.53;85.72
4133;BME280;2080;51.038;7.008;2024-02-14T11:15:19;46231.38;;;-142.53;85.20
4133;BME280;2080;51.038;7.008;2024-02-14T11:17:48;46246.78;;;-142.53;87.31
4133;BME280;2080;51.038;7.008;2024-02-14T11:20:30;46271.81;;;-142.53;86.52
4133;BME280;2080;51.038;7.008;2024-02-14T11:23:02;46273.72;;;-142.53;86.83
4133;BME280;2080;51.038;7.008;2024-02-14T11:25:32;46385.41;;;-142.53;91.25
4133;BME280;2080;51.038;7.008;2024-02-14T11:28:12;46604.88;;;-142.53;96.14
4133;BME280;2080;51.038;7.008;2024-02-14T11:30:40;47727.56;;;-142.53;100.00
4133;BME280;2080;51.038;7.008;2024-02-14T11:33:23;47321.22;;;-142.53;98.86
4133;BME280;2080;51.038;7.008;2024-02-14T11:35:50;46774.31;;;-142.53;94.81
4133;BME280;2080;51.038;7.008;2024-02-14T11:38:27;46647.25;;;-142.53;93.02
4133;BME280;2080;51.038;7.008;2024-02-14T11:40:55;46500.91;;;-142.53;91.39
4133;BME280;2080;51.038;7.008;2024-02-14T11:43:23;46412.34;;;-142.53;90.65
4133;BME280;2080;51.038;7.008;2024-02-14T11:45:52;46450.84;;;-142.53;90.20
4133;BME280;2080;51.038;7.008;2024-02-14T11:48:20;46364.22;;;-142.53;88.98
4133;BME280;2080;51.038;7.008;2024-02-14T11:50:47;46366.13;;;-142.53;88.35
4133;BME280;2080;51.038;7.008;2024-02-14T11:53:15;46341.13;;;-142.53;88.81
4133;BME280;2080;51.038;7.008;2024-02-14T11:55:45;46366.13;;;-142.53;87.87
4133;BME280;2080;51.038;7.008;2024-02-14T11:58:15;46335.34;;;-142.53;88.18
4133;BME280;2080;51.038;7.008;2024-02-14T12:00:42;46291.06;;;-142.53;86.69
4133;BME280;2080;51.038;7.008;2024-02-14T12:03:24;46269.88;;;-142.53;85.74
4133;BME280;2080;51.038;7.008;2024-02-14T12:05:56;46250.63;;;-142.53;85.60
4133;BME280;2080;51.038;7.008;2024-02-14T12:08:25;46292.97;;;-142.53;87.26
4133;BME280;2080;51.038;7.008;2024-02-14T12:10:50;46335.34;;;-142.53;87.93
4133;BME280;2080;51.038;7.008;2024-02-14T12:13:17;46431.59;;;-142.53;92.36
4133;BME280;2080;51.038;7.008;2024-02-14T12:15:45;46543.28;;;-142.53;94.14
4133;BME280;2080;51.038;7.008;2024-02-14T12:18:12;46562.53;;;-142.53;93.96
4133;BME280;2080;51.038;7.008;2024-02-14T12:20:38;46504.75;;;-142.53;92.80
4133;BME280;2080;51.038;7.008;2024-02-14T12:23:04;46518.25;;;-142.53;92.10
4133;BME280;2080;51.038;7.008;2024-02-14T12:25:30;46423.91;;;-142.53;89.98
4133;BME280;2080;51.038;7.008;2024-02-14T12:27:57;46354.59;;;-142.53;88.61
4133;BME280;2080;51.038;7.008;2024-02-14T12:30:51;46385.41;;;-142.53;90.65
4133;BME280;2080;51.038;7.008;2024-02-14T12:33:24;46512.47;;;-142.53;93.74
4133;BME280;2080;51.038;7.008;2024-02-14T12:35:50;46531.72;;;-142.53;93.88
4133;BME280;2080;51.038;7.008;2024-02-14T12:38:17;46876.38;;;-142.53;97.63
4133;BME280;2080;51.038;7.008;2024-02-14T12:40:46;47005.38;;;-142.53;99.18
4133;BME280;2080;51.038;7.008;2024-02-14T12:43:12;46772.41;;;-142.53;95.95
4133;BME280;2080;51.038;7.008;2024-02-14T12:45:39;46662.66;;;-142.53;94.05
4133;BME280;2080;51.038;7.008;2024-02-14T12:48:05;46755.06;;;-142.53;96.28
4133;BME280;2080;51.038;7.008;2024-02-14T12:50:31;46620.28;;;-142.53;92.13
4133;BME280;2080;51.038;7.008;2024-02-14T12:52:57;46485.50;;;-142.53;91.91
4133;BME280;2080;51.038;7.008;2024-02-14T12:55:26;46427.75;;;-142.53;90.19
4133;BME280;2080;51.038;7.008;2024-02-14T12:57:56;46443.16;;;-142.53;91.28
4133;BME280;2080;51.038;7.008;2024-02-14T13:00:23;46473.97;;;-142.53;91.42